Weather at Nausori International Airport

Public forecast

Using degrees Celsius for public forecast. Weather courtesy of forecast.io.

Current aviation weather report (METAR) for Nausori International Airport

Retrieved 2022/08/16 07:00 UTC (35 minutes ago):

NFNA 160700Z 09010KT 9999 SCT020 BKN045 26/21 Q1016

Aviation forecast (TAF) for Nausori International Airport

Retrieved 2022/08/16 06:00 UTC (2 hours ago):

TAF NFNA 160513Z 1606/1706 09009KT 9999 SCT018 BKN045 PROB30 TEMPO 1615/1620 5000 SHRA BKN018 PROB40 TEMPO 1618/1706 08015G25KT